Erlton, New Jersey
Current Conditions -  °F | °C
As of 6:54 PM on Thursday 27 Nov 2014 (Local Time) from KVAY Reporting Station
Clear Clear  
Wind Chill: 31°   Ceiling: Unl
Heat Index: 35°   Visibility: 10mi
Dew Point: 27°   Wind: 5mph
Humidity: 72%   Direction: 280°W
Pressure: 30.07"   Gusts: NA
Location:  39.9312°N, 75.0244°W
Report Text: KVAY 272354Z AUTO 28004KT 10SM CLR 02/M03 A3007 RMK AO2 SLP184 T00171028 10044 20017 51016
Loading
Personal Weather Stations






























Interactive Weather Map New forecast layout! Learn more

10-Day Weather Forecast

Advertisements
Track Severe Weather on mobile